Conejos, Valles Caldera, New Mexico Weather observations

Data are for 10 minute period ending at time listed.
 Day   Time   Solar   Ave.   Ave.  Ave.  Vector  Max.   Baro.   Total    
  of    of     Rad.   Air    Rel.  Wind   Wind   Wind  Press.  Precip.   
Year   Day            Temp.  Hum.  Speed  Dir.   Gust                    
2017   (MST)  Kw/m2    F      %     mph   deg.    mph    mb.     in.     
-------------------------------------------------------------------------
 202   19:30   0.00   65.1    42    0.1    14     1.2   99999.0    0.00 
 202   19:40   0.00   64.3    44    0.5   129     3.0   99999.0    0.00 
 202   19:50   0.00   63.6    45    1.3   120     4.2   99999.0    0.00 
 202   20:00   0.00   63.7    47    2.7   121     6.0   99999.0    0.00 
 202   20:10   0.00   63.7    48    2.5   131    11.3   99999.0    0.00 
 202   20:20   0.00   63.9    48    1.6    88     7.2   99999.0    0.00 
 202   20:30   0.00   63.1    51    1.0   110     4.2   99999.0    0.00 
 202   20:40   0.00   62.6    52    1.2   108     4.8   99999.0    0.00 
 202   20:50   0.00   61.9    53    0.5   142     3.0   99999.0    0.00 
 202   21:00   0.00   61.7    53    1.6   135     6.6   99999.0    0.00 
 202   21:10   0.00   62.8    49    2.2   138     7.2   99999.0    0.00 
 202   21:20   0.00   62.9    49    1.3   115     3.6   99999.0    0.00 
 202   21:30   0.00   62.2    50    1.3    70     3.6   99999.0    0.00 
 202   21:40   0.00   61.3    52    0.5    87     2.4   99999.0    0.00 
 202   21:50   0.00   60.5    53    0.0   171     1.2   99999.0    0.00 
 202   22:00   0.00   60.4    54    0.9   107     3.0   99999.0    0.00 
 202   22:10   0.00   60.2    56    0.8    83     1.8   99999.0    0.00 
 202   22:20   0.00   60.0    57    0.5   117     2.4   99999.0    0.00 
 202   22:30   0.00   59.3    58    0.3   112     2.4   99999.0    0.00 
 202   22:40   0.00   58.8    60    0.0    88     0.9   99999.0    0.00 
 202   22:50   0.00   58.5    62    0.1   247     1.2   99999.0    0.00 
 202   23:00   0.00   58.1    63    0.1   174     1.8   99999.0    0.00 
 202   23:10   0.00   57.7    64    0.2   169     1.8   99999.0    0.00 
 202   23:20   0.00   57.0    66    0.6   170     3.0   99999.0    0.00 
 202   23:30   0.00   56.2    68    0.9   161     2.4   99999.0    0.00 
 202   23:40   0.00   56.3    68    1.9   152     3.6   99999.0    0.00 
 202   23:50   0.00   57.0    68    1.4   141     3.0   99999.0    0.00 
 203    0:00   0.00   57.5    66    0.1   137     1.2   99999.0    0.00 
 203    0:10   0.00   57.0    67    0.6   125     2.4   99999.0    0.00 
 203    0:20   0.00   56.7    68    0.3   330     1.8   99999.0    0.00 
 203    0:30   0.00   57.2    68    0.3     3     1.8   99999.0    0.00 
 203    0:40   0.00   57.6    67    0.1   357     1.2   99999.0    0.00 
 203    0:50   0.00   56.9    68    0.0     0     0.0   99999.0    0.00 
 203    1:00   0.00   56.2    70    0.0     0     0.0   99999.0    0.00 
 203    1:10   0.00   55.2    72    0.0     0     0.0   99999.0    0.00 
 203    1:20   0.00   55.4    73    0.0     0     0.0   99999.0    0.00 
 203    1:30   0.00   55.3    72    0.1    60     1.2   99999.0    0.00 
 203    1:40   0.00   55.0    73    0.0   129     1.2   99999.0    0.00 
 203    1:50   0.00   55.5    74    0.0     0     0.0   99999.0    0.00 
 203    2:00   0.00   56.6    71    0.1   205     1.2   99999.0    0.00 
 203    2:10   0.00   56.4    71    0.1   334     1.8   99999.0    0.00 
 203    2:20   0.00   55.2    73    0.0     0     0.0   99999.0    0.00 
 203    2:30   0.00   55.3    73    0.1   193     1.2   99999.0    0.00 
 203    2:40   0.00   54.8    74    0.0     0     0.0   99999.0    0.00 
 203    2:50   0.00   54.1    76    0.2   151     1.8   99999.0    0.00 
 203    3:00   0.00   53.9    76    0.0     0     0.0   99999.0    0.00 
 203    3:10   0.00   53.7    77    0.0   173     1.2   99999.0    0.00 
 203    3:20   0.00   53.5    78    0.0     0     0.0   99999.0    0.00 
 203    3:30   0.00   53.3    78    0.0     0     0.0   99999.0    0.00 
 203    3:40   0.00   53.2    78    0.0     0     0.0   99999.0    0.00 
 203    3:50   0.00   53.2    79    0.0     0     0.0   99999.0    0.00 
 203    4:00   0.00   53.4    78    0.0     0     0.0   99999.0    0.00 
 203    4:10   0.00   53.3    78    0.0     0     0.0   99999.0    0.00 
 203    4:20   0.00   53.3    79    0.0     0     0.0   99999.0    0.00 
 203    4:30   0.00   53.8    78    0.1   234     1.2   99999.0    0.00 
 203    4:40   0.00   54.0    77    0.2   236     1.8   99999.0    0.00 
 203    4:50   0.00   53.5    78    0.0     0     0.0   99999.0    0.00 
 203    5:00   0.00   53.3    79    0.0     0     0.0   99999.0    0.00 
 203    5:10   0.00   52.9    80    0.0     0     0.0   99999.0    0.00 
 203    5:20   0.00   52.8    80    0.0     0     0.0   99999.0    0.00 
 203    5:30   0.01   52.7    80    0.0     0     0.0   99999.0    0.00 
 203    5:40   0.01   52.8    80    0.0     0     0.0   99999.0    0.00 
 203    5:50   0.01   53.0    80    0.0     0     0.0   99999.0    0.00 
 203    6:00   0.02   53.2    80    0.0   146     1.2   99999.0    0.00 
 203    6:10   0.03   55.2    76    0.9   142     3.0   99999.0    0.00 
 203    6:20   0.06   57.1    71    1.4   170     3.0   99999.0    0.00 
 203    6:30   0.06   57.9    69    1.7   160     3.6   99999.0    0.00 
 203    6:40   0.07   57.3    72    2.1   157     4.2   99999.0    0.00 
 203    6:50   0.03   58.0    71    1.9   161     5.4   99999.0    0.00 
 203    7:00   0.04   59.9    65    1.5   145     4.8   99999.0    0.00 
 203    7:10   0.04   60.4    65    1.9   148     4.8   99999.0    0.00 
 203    7:20   0.04   61.4    62    2.4   165     4.8   99999.0    0.00 
 203    7:30   0.16   61.5    63    2.5   168     6.0   99999.0    0.00 
 203    7:40   0.09   62.3    61    1.8   146     4.2   99999.0    0.00 
 203    7:50   0.11   62.7    61    3.0   170     7.2   99999.0    0.00 
 203    8:00   0.09   63.1    60    2.9   155     7.8   99999.0    0.00 
 203    8:10   0.08   63.6    58    3.3   148     7.2   99999.0    0.00 
 203    8:20   0.47   63.9    58    3.8   146     9.0   99999.0    0.00 
 203    8:30   0.49   64.3    57    3.4   162     7.2   99999.0    0.00 
 203    8:40   0.51   65.9    54    2.5   187     9.0   99999.0    0.00 
 203    8:50   0.54   66.4    52    3.7   175     9.0   99999.0    0.00 
 203    9:00   0.56   67.7    50    3.5   145     6.9   99999.0    0.00 
 203    9:10   0.59   68.3    50    3.3   129     8.4   99999.0    0.00 
 203    9:20   0.63   68.7    48    4.1   165     9.6   99999.0    0.00 
 203    9:30   0.69   69.2    46    4.4   131    11.3   99999.0    0.00 
 203    9:40   0.68   69.7    46    4.0   144     9.6   99999.0    0.00 
 203    9:50   0.64   70.5    44    3.6   117     7.2   99999.0    0.00 
 203   10:00   0.71   70.8    43    4.2   151    10.8   99999.0    0.00 
 203   10:10   0.75   71.2    42    4.2   128     9.0   99999.0    0.00 
 203   10:20   0.76   71.1    41    4.6   152     8.4   99999.0    0.00 
 203   10:30   0.77   72.6    39    4.3   150    10.2   99999.0    0.00 
 203   10:40   0.75   72.1    39    4.7   146    12.5   99999.0    0.00 
 203   10:50   0.78   73.3    34    4.3   143     9.6   99999.0    0.00 
 203   11:00   0.81   74.5    31    4.0   124     8.4   99999.0    0.00 
 203   11:10   0.84   75.3    30    3.7   137    11.3   99999.0    0.00 
 203   11:20   0.87   73.8    31    5.2   157     9.6   99999.0    0.00 
 203   11:30   0.67   73.9    33    6.0   175    11.3   99999.0    0.00 
 203   11:40   0.33   72.0    32    5.1   165    10.2   99999.0    0.00 
 203   11:50   0.14   70.2    33    3.9   203     9.6   99999.0    0.00 
 203   12:00   0.12   70.1    32    3.2   186     7.2   99999.0    0.00 
 203   12:10   0.12   69.5    36    2.7   251     5.4   99999.0    0.00 
 203   12:20   0.14   69.4    44    1.7    20     3.0   99999.0    0.00 
 203   12:30   0.21   69.4    37    2.6    45     7.2   99999.0    0.00 
 203   12:40   0.32   70.7    31    2.2   251     5.4   99999.0    0.00 
 203   12:50   0.43   71.7    30    3.6   148     7.8   99999.0    0.00 
 203   13:00   0.54   72.8    28    2.8   139     6.6   99999.0    0.00 
 203   13:10   0.60   73.7    26    4.6   162     9.0   99999.0    0.00 
 203   13:20   0.81   74.5    25    3.8   144     9.0   99999.0    0.00 
 203   13:30   0.80   75.1    24    4.3   154     8.4   99999.0    0.00 
 203   13:40   0.77   74.4    23    3.1   246     6.6   99999.0    0.00 
 203   13:50   0.77   76.1    22    5.3   146    10.2   99999.0    0.00 
 203   14:00   0.75   75.9    22    6.4   168    13.1   99999.0    0.00 
 203   14:10   0.67   75.9    22    4.5   164    11.9   99999.0    0.00 
 203   14:20   0.12   75.6    22    4.0   124    11.9   99999.0    0.00 
 203   14:30   0.12   75.8    22    4.5   176    12.5   99999.0    0.00 
 203   14:40   0.11   76.4    21    5.1   150    12.5   99999.0    0.00 
 203   14:50   0.10   76.5    21    4.5   154    11.3   99999.0    0.00 
 203   15:00   0.15   76.6    22    4.4   136    10.8   99999.0    0.00 
 203   15:10   0.30   77.2    22    4.5   143    10.2   99999.0    0.00 
 203   15:20   0.29   75.7    23    4.7   132     9.6   99999.0    0.00 
 203   15:30   0.37   74.0    25    3.8   173     6.6   99999.0    0.00 
 203   15:40   0.36   75.6    25    4.0   140     8.1   99999.0    0.00 
 203   15:50   0.08   74.2    25    3.1   127     9.0   99999.0    0.00 
 203   16:00   0.06   73.6    24    2.4   111     4.8   99999.0    0.00 
 203   16:10   0.04   73.0    24    2.2   124     4.8   99999.0    0.00 
 203   16:20   0.05   72.9    24    1.2   121     3.0   99999.0    0.00 
 203   16:30   0.06   72.6    25    3.8    79    10.2   99999.0    0.00 
 203   16:40   0.06   68.1    36    5.6     6    13.1   99999.0    0.00 
 203   16:50   0.09   66.9    38    6.9     9    13.1   99999.0    0.00 
 203   17:00   0.11   67.4    38    5.8   359     9.6   99999.0    0.00 
 203   17:10   0.08   67.5    38    4.7   356     8.4   99999.0    0.00 
 203   17:20   0.05   67.3    38    5.1   351     9.6   99999.0    0.00 
 203   17:30   0.03   66.0    40    5.2     2     9.0   99999.0    0.00 
 203   17:40   0.03   65.6    42    4.0   357     7.2   99999.0    0.00 
 203   17:50   0.03   65.4    41    4.6   358    11.3   99999.0    0.00 
 203   18:00   0.03   65.4    40    3.6   345     5.4   99999.0    0.00 
 203   18:10   0.02   65.3    41    3.1   342     4.8   99999.0    0.00 
 203   18:20   0.01   65.1    40    3.7   351     7.8   99999.0    0.00 
 203   18:30   0.01   64.7    41    3.9     0     6.6   99999.0    0.00 
 203   18:40   0.01   64.3    41    4.5   355     6.6   99999.0    0.00 
 203   18:50   0.01   64.5    40    4.2   358     9.0   99999.0    0.00 
 203   19:00   0.01   64.1    41    3.9    10    10.2   99999.0    0.00 
 203   19:10   0.01   63.3    41    6.0     3    11.9   99999.0    0.00 
 203   19:20   0.00   63.0    41    4.5     5    11.9   99999.0    0.00 

Return to Conejos, Valles Caldera graphs page.


Western Regional Climate Center,wrcc@dri.edu